Time;durP1;ratioP1;P1;durP2;ratioP2;P2;SDS_P1;SDS_P2;PMS_P1;PMS_P2;Temp;Humidity;BMP_temperature;BMP_pressure;BME280_temperature;BME280_humidity;BME280_pressure;Samples;Min_cycle;Max_cycle;Signal;HPM_P1;HPM_P2
2023/08/09 00:02:18;;;;;;;;;4.67;4.67;;;;;;;;5141336;27;45288;-74
2023/08/09 00:04:44;;;;;;;;;7.67;5.67;;;;;;;;5141447;27;45830;-74
2023/08/09 00:07:09;;;;;;;;;6.00;6.00;;;;;;;;5141274;27;45240;-74
2023/08/09 00:09:34;;;;;;;;;4.67;4.00;;;;;;;;5141272;27;45307;-74
2023/08/09 00:11:59;;;;;;;;;3.00;3.00;;;;;;;;5141330;27;45352;-75
2023/08/09 00:14:24;;;;;;;;;5.00;4.33;;;;;;;;5122461;27;45429;-74
2023/08/09 00:16:49;;;;;;;;;8.00;5.33;;;;;;;;5122474;27;45384;-74
2023/08/09 00:19:15;;;;;;;;;2.00;1.00;;;;;;;;5140992;27;45322;-74
2023/08/09 00:21:40;;;;;;;;;4.33;4.33;;;;;;;;5141091;27;45308;-74
2023/08/09 00:24:05;;;;;;;;;4.33;4.00;;;;;;;;5140958;27;45427;-74
2023/08/09 00:26:30;;;;;;;;;4.67;4.67;;;;;;;;5141144;27;45247;-75
2023/08/09 00:28:56;;;;;;;;;6.00;6.00;;;;;;;;5135540;27;45489;-74
2023/08/09 00:31:21;;;;;;;;;4.00;4.00;;;;;;;;5101580;27;45419;-74
2023/08/09 00:33:46;;;;;;;;;6.67;6.67;;;;;;;;5120191;27;46204;-75
2023/08/09 00:36:11;;;;;;;;;5.00;5.00;;;;;;;;5101603;27;45398;-75
2023/08/09 00:38:36;;;;;;;;;4.67;4.67;;;;;;;;5120019;27;45296;-74
2023/08/09 00:41:02;;;;;;;;;4.00;4.00;;;;;;;;5120584;27;45429;-74
2023/08/09 00:43:27;;;;;;;;;5.00;5.00;;;;;;;;5104790;27;48078;-74
2023/08/09 00:45:52;;;;;;;;;5.33;4.00;;;;;;;;5105218;27;45323;-74
2023/08/09 00:48:18;;;;;;;;;4.33;4.00;;;;;;;;5123757;27;45316;-75
2023/08/09 00:50:43;;;;;;;;;6.33;6.33;;;;;;;;5123318;27;45295;-74
2023/08/09 00:53:09;;;;;;;;;6.00;6.00;;;;;;;;5104899;27;47277;-74
2023/08/09 00:55:34;;;;;;;;;6.00;5.33;;;;;;;;5104724;27;45726;-74
2023/08/09 00:57:59;;;;;;;;;6.00;6.00;;;;;;;;5123835;27;45321;-74
2023/08/09 01:00:24;;;;;;;;;6.00;6.00;;;;;;;;5123238;27;45485;-74
2023/08/09 01:02:50;;;;;;;;;6.33;6.33;;;;;;;;5104693;27;46907;-75
2023/08/09 01:05:15;;;;;;;;;4.00;4.00;;;;;;;;5123142;27;45394;-74
2023/08/09 01:07:49;;;;;;;;;5.33;5.33;;;;;;;;5100999;27;45233;-74
2023/08/09 01:10:17;;;;;;;;;5.67;4.67;;;;;;;;5083104;27;46220;-75
2023/08/09 01:12:52;;;;;;;;;6.00;6.00;;;;;;;;5102372;27;46636;-75
2023/08/09 01:15:18;;;;;;;;;5.67;5.67;;;;;;;;5095860;27;45277;-74
2023/08/09 01:17:44;;;;;;;;;7.33;7.00;;;;;;;;5123167;27;45314;-74
2023/08/09 01:20:13;;;;;;;;;6.33;6.33;;;;;;;;5122873;27;45563;-74
2023/08/09 01:22:46;;;;;;;;;5.67;5.67;;;;;;;;5123010;27;46684;-74
2023/08/09 01:25:11;;;;;;;;;6.67;6.67;;;;;;;;5103919;27;46187;-74
2023/08/09 01:27:37;;;;;;;;;4.00;4.00;;;;;;;;5123187;27;45323;-74
2023/08/09 01:30:04;;;;;;;;;7.67;6.67;;;;;;;;5137856;27;45354;-74
2023/08/09 01:32:30;;;;;;;;;5.33;5.33;;;;;;;;5124724;27;47553;-75
2023/08/09 01:34:55;;;;;;;;;4.00;4.00;;;;;;;;5124778;27;45262;-74
2023/08/09 01:37:23;;;;;;;;;8.00;7.00;;;;;;;;5143576;27;45151;-74
2023/08/09 01:39:50;;;;;;;;;6.67;6.33;;;;;;;;5143179;27;45151;-75
2023/08/09 01:42:15;;;;;;;;;8.00;7.00;;;;;;;;5124543;27;46198;-74
2023/08/09 01:44:41;;;;;;;;;3.33;3.33;;;;;;;;5124642;27;45404;-75
2023/08/09 01:47:07;;;;;;;;;5.33;5.33;;;;;;;;5124934;27;45245;-75
2023/08/09 01:49:32;;;;;;;;;7.00;7.00;;;;;;;;5143500;27;45476;-74
2023/08/09 01:51:57;;;;;;;;;6.00;6.00;;;;;;;;5142727;27;45642;-75
2023/08/09 01:54:24;;;;;;;;;5.33;4.67;;;;;;;;5123524;27;45885;-75
2023/08/09 01:56:49;;;;;;;;;6.67;6.67;;;;;;;;5143278;27;45423;-75
2023/08/09 01:59:14;;;;;;;;;6.67;6.00;;;;;;;;5143068;27;45406;-74
2023/08/09 02:01:40;;;;;;;;;5.00;5.00;;;;;;;;5124439;27;46619;-74
2023/08/09 02:04:09;;;;;;;;;6.00;6.00;;;;;;;;5143212;27;45223;-74
2023/08/09 02:06:34;;;;;;;;;7.00;6.00;;;;;;;;5143143;27;45516;-74
2023/08/09 02:09:00;;;;;;;;;7.00;7.00;;;;;;;;5124227;27;45657;-75
2023/08/09 02:11:25;;;;;;;;;5.67;5.67;;;;;;;;5143000;27;45235;-74
2023/08/09 02:13:51;;;;;;;;;8.00;8.00;;;;;;;;5143083;27;45382;-74
2023/08/09 02:16:16;;;;;;;;;6.00;6.00;;;;;;;;5143106;27;45419;-75
2023/08/09 02:18:42;;;;;;;;;7.67;7.00;;;;;;;;5143073;27;45354;-75
2023/08/09 02:21:07;;;;;;;;;7.67;6.00;;;;;;;;5142643;27;45340;-74
2023/08/09 02:23:32;;;;;;;;;7.33;7.33;;;;;;;;5142743;27;45456;-73
2023/08/09 02:25:57;;;;;;;;;8.67;8.67;;;;;;;;5124404;27;45437;-74
2023/08/09 02:28:22;;;;;;;;;5.33;5.33;;;;;;;;5141873;27;45440;-74
2023/08/09 02:30:49;;;;;;;;;3.33;3.33;;;;;;;;5121763;27;45449;-74
2023/08/09 02:33:14;;;;;;;;;5.00;5.00;;;;;;;;5103406;27;45353;-74
2023/08/09 02:35:56;;;;;;;;;5.00;5.00;;;;;;;;5103223;27;45294;-74
2023/08/09 02:38:21;;;;;;;;;5.67;5.00;;;;;;;;5121534;27;45551;-74
2023/08/09 02:40:48;;;;;;;;;5.00;4.00;;;;;;;;5121402;27;45373;-74
2023/08/09 02:43:14;;;;;;;;;4.67;4.67;;;;;;;;5124468;27;45316;-75
2023/08/09 02:45:39;;;;;;;;;5.00;3.67;;;;;;;;5103110;27;45325;-74
2023/08/09 02:48:05;;;;;;;;;5.00;5.00;;;;;;;;5103311;27;45986;-74
2023/08/09 02:50:30;;;;;;;;;3.00;3.00;;;;;;;;5121112;27;46419;-74
2023/08/09 02:52:55;;;;;;;;;4.33;4.33;;;;;;;;5121596;27;45320;-74
2023/08/09 02:55:20;;;;;;;;;3.00;3.00;;;;;;;;5121577;27;45266;-74
2023/08/09 02:57:45;;;;;;;;;4.67;4.00;;;;;;;;5121413;27;45243;-74
2023/08/09 03:00:12;;;;;;;;;3.67;3.00;;;;;;;;5102611;27;47075;-74
2023/08/09 03:02:38;;;;;;;;;3.00;3.00;;;;;;;;5102849;27;45333;-74
2023/08/09 03:05:04;;;;;;;;;2.33;2.33;;;;;;;;5121225;27;45373;-74
2023/08/09 03:07:29;;;;;;;;;3.00;3.00;;;;;;;;5121217;27;45449;-74
2023/08/09 03:09:54;;;;;;;;;2.33;2.33;;;;;;;;5102420;27;47814;-74
2023/08/09 03:12:19;;;;;;;;;1.00;1.00;;;;;;;;5121179;27;45315;-74
2023/08/09 03:14:44;;;;;;;;;2.00;2.00;;;;;;;;5121388;27;45345;-73
2023/08/09 03:17:11;;;;;;;;;2.00;2.00;;;;;;;;5102638;27;45986;-74
2023/08/09 03:19:36;;;;;;;;;4.00;3.00;;;;;;;;5121152;27;45350;-74
2023/08/09 03:22:01;;;;;;;;;3.67;3.67;;;;;;;;5121011;27;45459;-74
2023/08/09 03:24:26;;;;;;;;;4.00;4.00;;;;;;;;5121142;27;45381;-74
2023/08/09 03:26:51;;;;;;;;;3.00;3.00;;;;;;;;5102537;27;46976;-74
2023/08/09 03:29:16;;;;;;;;;4.00;3.00;;;;;;;;5129470;27;45505;-74
2023/08/09 03:31:42;;;;;;;;;2.00;1.33;;;;;;;;5105869;27;45357;-74
2023/08/09 03:34:07;;;;;;;;;2.00;2.00;;;;;;;;5142031;27;45390;-75
2023/08/09 03:36:32;;;;;;;;;3.00;3.00;;;;;;;;5141543;27;45360;-74
2023/08/09 03:38:57;;;;;;;;;2.33;2.33;;;;;;;;5141398;27;45427;-75
2023/08/09 03:41:22;;;;;;;;;4.67;4.67;;;;;;;;5141250;27;45413;-74
2023/08/09 03:43:48;;;;;;;;;3.33;3.00;;;;;;;;5141710;27;45362;-73
2023/08/09 03:46:13;;;;;;;;;3.33;3.33;;;;;;;;5122862;27;46994;-74
2023/08/09 03:48:39;;;;;;;;;3.67;3.67;;;;;;;;5141384;27;45421;-74
2023/08/09 03:51:04;;;;;;;;;3.33;3.33;;;;;;;;5122670;27;45317;-75
2023/08/09 03:53:29;;;;;;;;;2.00;2.00;;;;;;;;5141505;27;45265;-74
2023/08/09 03:55:54;;;;;;;;;2.33;2.00;;;;;;;;5141383;27;45302;-74
2023/08/09 03:58:19;;;;;;;;;3.00;3.00;;;;;;;;5141265;27;46198;-74
2023/08/09 04:00:45;;;;;;;;;1.67;1.67;;;;;;;;5141094;27;45332;-74
2023/08/09 04:03:10;;;;;;;;;4.00;4.00;;;;;;;;5141522;27;45267;-74
2023/08/09 04:05:36;;;;;;;;;4.00;3.00;;;;;;;;5141185;27;45571;-74
2023/08/09 04:08:03;;;;;;;;;3.00;3.00;;;;;;;;5122417;27;46967;-74
2023/08/09 04:10:28;;;;;;;;;3.33;2.33;;;;;;;;5122499;27;45247;-74
2023/08/09 04:12:53;;;;;;;;;2.00;2.00;;;;;;;;5141470;27;45331;-75
2023/08/09 04:15:19;;;;;;;;;1.33;1.33;;;;;;;;5141180;27;45600;-74
2023/08/09 04:17:44;;;;;;;;;2.67;2.67;;;;;;;;5144335;27;45522;-74
2023/08/09 04:20:11;;;;;;;;;2.00;2.00;;;;;;;;5144828;27;45363;-74
2023/08/09 04:22:36;;;;;;;;;2.00;2.00;;;;;;;;5144806;27;45359;-74
2023/08/09 04:25:03;;;;;;;;;3.33;2.67;;;;;;;;5144447;27;45537;-74
2023/08/09 04:27:29;;;;;;;;;2.00;2.00;;;;;;;;5125784;27;47245;-73
2023/08/09 04:29:54;;;;;;;;;2.33;2.33;;;;;;;;5111872;27;45271;-74
2023/08/09 04:32:19;;;;;;;;;2.33;2.00;;;;;;;;5124021;27;45368;-74
2023/08/09 04:34:44;;;;;;;;;1.00;1.00;;;;;;;;5123658;27;45506;-74
2023/08/09 04:37:10;;;;;;;;;1.00;1.00;;;;;;;;5123491;27;45305;-74
2023/08/09 04:39:35;;;;;;;;;1.33;1.33;;;;;;;;5123386;27;45407;-73
2023/08/09 04:42:02;;;;;;;;;2.00;2.00;;;;;;;;5105186;27;45297;-74
2023/08/09 04:44:28;;;;;;;;;1.00;1.00;;;;;;;;5123452;27;46108;-74
2023/08/09 04:46:53;;;;;;;;;1.33;1.00;;;;;;;;5123152;27;46354;-74
2023/08/09 04:49:18;;;;;;;;;1.00;1.00;;;;;;;;5105036;27;45344;-74
2023/08/09 04:51:43;;;;;;;;;3.33;1.00;;;;;;;;5123365;27;45185;-74
2023/08/09 04:54:08;;;;;;;;;1.33;1.00;;;;;;;;5123115;27;45153;-74
2023/08/09 04:56:34;;;;;;;;;1.00;1.00;;;;;;;;5123349;27;46256;-74
2023/08/09 04:58:59;;;;;;;;;2.00;2.00;;;;;;;;5123469;27;45298;-74
2023/08/09 05:01:24;;;;;;;;;1.00;1.00;;;;;;;;5123404;27;45531;-74
2023/08/09 05:03:49;;;;;;;;;1.00;1.00;;;;;;;;5104642;27;46169;-74
2023/08/09 05:06:14;;;;;;;;;1.00;1.00;;;;;;;;5104574;27;47265;-74
2023/08/09 05:08:39;;;;;;;;;1.00;1.00;;;;;;;;5104398;27;45375;-75
2023/08/09 05:11:05;;;;;;;;;1.33;1.00;;;;;;;;5104734;27;45297;-74
2023/08/09 05:13:30;;;;;;;;;1.00;1.00;;;;;;;;5104495;27;47065;-74
2023/08/09 05:15:55;;;;;;;;;2.00;1.00;;;;;;;;5123085;27;45585;-73
2023/08/09 05:18:20;;;;;;;;;0.67;0.67;;;;;;;;5104484;27;45264;-74
2023/08/09 05:20:45;;;;;;;;;2.00;0.00;;;;;;;;5122923;27;45510;-74
2023/08/09 05:23:10;;;;;;;;;2.00;2.00;;;;;;;;5122920;27;45616;-73
2023/08/09 05:25:36;;;;;;;;;1.00;1.00;;;;;;;;5122150;27;45381;-74
2023/08/09 05:28:01;;;;;;;;;1.67;1.67;;;;;;;;5122816;27;45354;-74
2023/08/09 05:30:27;;;;;;;;;1.00;1.00;;;;;;;;5122870;27;45387;-74
2023/08/09 05:32:52;;;;;;;;;1.00;1.00;;;;;;;;5143597;27;45357;-74
2023/08/09 05:35:17;;;;;;;;;2.00;2.00;;;;;;;;5143410;27;46510;-75
2023/08/09 05:37:43;;;;;;;;;3.00;3.00;;;;;;;;5143692;27;45293;-75
2023/08/09 05:40:09;;;;;;;;;1.00;1.00;;;;;;;;5143736;27;45306;-80
2023/08/09 05:42:35;;;;;;;;;3.00;2.00;;;;;;;;5143501;27;45319;-79
2023/08/09 05:45:00;;;;;;;;;2.00;2.00;;;;;;;;5144147;27;45966;-75
2023/08/09 05:47:25;;;;;;;;;2.00;2.00;;;;;;;;5143490;27;45363;-75
2023/08/09 05:49:50;;;;;;;;;2.00;2.00;;;;;;;;5143471;27;45295;-74
2023/08/09 05:52:15;;;;;;;;;4.00;2.00;;;;;;;;5124353;27;47141;-75
2023/08/09 05:54:41;;;;;;;;;2.00;2.00;;;;;;;;5124316;27;47223;-75
2023/08/09 05:57:06;;;;;;;;;1.00;1.00;;;;;;;;5143267;27;45363;-74
2023/08/09 05:59:31;;;;;;;;;1.00;0.67;;;;;;;;5143267;27;45192;-75
2023/08/09 06:01:56;;;;;;;;;1.33;1.33;;;;;;;;5107105;27;46098;-74
2023/08/09 06:04:22;;;;;;;;;1.67;1.67;;;;;;;;5121717;27;45262;-74
2023/08/09 06:06:47;;;;;;;;;2.33;2.33;;;;;;;;5122242;27;45286;-75
2023/08/09 06:09:12;;;;;;;;;1.67;1.67;;;;;;;;5122181;27;45244;-74
2023/08/09 06:11:38;;;;;;;;;1.00;1.00;;;;;;;;5122240;27;45190;-75
2023/08/09 06:14:03;;;;;;;;;0.00;0.00;;;;;;;;5103560;27;46979;-73
2023/08/09 06:16:29;;;;;;;;;2.00;2.00;;;;;;;;5122062;27;45303;-74
2023/08/09 06:18:54;;;;;;;;;2.00;2.00;;;;;;;;5119632;27;45458;-74
2023/08/09 06:21:19;;;;;;;;;2.00;2.00;;;;;;;;5103190;27;46052;-74
2023/08/09 06:23:44;;;;;;;;;3.00;2.00;;;;;;;;5121696;27;45268;-74
2023/08/09 06:26:09;;;;;;;;;4.00;4.00;;;;;;;;5103289;27;45368;-75
2023/08/09 06:28:35;;;;;;;;;3.00;3.00;;;;;;;;5124170;27;45488;-74
2023/08/09 06:31:00;;;;;;;;;3.00;3.00;;;;;;;;5112137;27;45382;-75
2023/08/09 06:33:25;;;;;;;;;2.67;2.67;;;;;;;;5091883;27;48023;-75
2023/08/09 06:35:51;;;;;;;;;0.00;0.00;;;;;;;;5110319;27;45565;-75
2023/08/09 06:38:16;;;;;;;;;1.67;1.67;;;;;;;;5093187;27;45441;-74
2023/08/09 06:40:41;;;;;;;;;2.00;2.00;;;;;;;;5090530;27;48629;-74
2023/08/09 06:43:06;;;;;;;;;5.00;3.67;;;;;;;;5109579;27;45322;-75
2023/08/09 06:45:33;;;;;;;;;2.67;2.67;;;;;;;;5092329;27;45910;-75
2023/08/09 06:47:59;;;;;;;;;3.67;3.67;;;;;;;;5101191;27;45353;-76
2023/08/09 06:50:24;;;;;;;;;3.00;3.00;;;;;;;;5082429;27;46510;-75
2023/08/09 06:52:49;;;;;;;;;2.00;2.00;;;;;;;;5102121;27;45377;-74
2023/08/09 06:55:14;;;;;;;;;1.00;1.00;;;;;;;;5100679;27;45256;-74
2023/08/09 06:57:39;;;;;;;;;2.00;2.00;;;;;;;;5100696;27;45397;-74
2023/08/09 07:00:05;;;;;;;;;3.00;3.00;;;;;;;;5100649;27;45307;-73
2023/08/09 07:02:32;;;;;;;;;2.00;2.00;;;;;;;;5100589;27;45326;-74
2023/08/09 07:05:00;;;;;;;;;4.00;3.33;;;;;;;;5099977;27;45345;-73
2023/08/09 07:07:25;;;;;;;;;3.67;3.00;;;;;;;;5100656;27;45368;-75
2023/08/09 07:09:52;;;;;;;;;3.00;3.00;;;;;;;;5097552;27;45578;-73
2023/08/09 07:12:17;;;;;;;;;2.67;2.67;;;;;;;;5116928;27;45723;-74
2023/08/09 07:14:42;;;;;;;;;2.33;2.33;;;;;;;;5119277;27;45374;-73
2023/08/09 07:17:08;;;;;;;;;1.33;1.33;;;;;;;;5100673;27;45607;-75
2023/08/09 07:19:33;;;;;;;;;0.00;0.00;;;;;;;;5081757;27;47080;-73
2023/08/09 07:21:58;;;;;;;;;3.00;3.00;;;;;;;;5109853;27;45966;-75
2023/08/09 07:24:23;;;;;;;;;3.67;3.67;;;;;;;;5119875;27;45737;-75
2023/08/09 07:26:48;;;;;;;;;3.00;3.00;;;;;;;;5115213;27;45337;-75
2023/08/09 07:29:13;;;;;;;;;4.00;4.00;;;;;;;;5125527;27;45918;-75
2023/08/09 07:31:39;;;;;;;;;3.33;3.33;;;;;;;;5124979;27;48254;-76
2023/08/09 07:34:04;;;;;;;;;3.00;3.00;;;;;;;;5146649;27;45375;-75
2023/08/09 07:36:29;;;;;;;;;3.00;3.00;;;;;;;;5134104;27;45529;-75
2023/08/09 07:38:54;;;;;;;;;3.00;1.33;;;;;;;;5119750;27;45510;-76
2023/08/09 07:41:20;;;;;;;;;1.67;1.67;;;;;;;;5083591;27;47405;-75
2023/08/09 07:43:45;;;;;;;;;2.00;2.00;;;;;;;;5100318;27;45294;-75
2023/08/09 07:46:10;;;;;;;;;2.00;2.00;;;;;;;;5100408;27;45209;-75
2023/08/09 07:48:36;;;;;;;;;1.33;1.33;;;;;;;;5100101;27;45317;-75
2023/08/09 07:51:01;;;;;;;;;2.33;2.33;;;;;;;;5100647;27;46556;-76
2023/08/09 07:53:26;;;;;;;;;1.00;1.00;;;;;;;;5103596;27;45278;-76
2023/08/09 07:55:52;;;;;;;;;1.67;1.00;;;;;;;;5104015;27;45287;-76
2023/08/09 07:58:17;;;;;;;;;3.00;3.00;;;;;;;;5120130;27;45511;-76
2023/08/09 08:00:42;;;;;;;;;5.00;3.00;;;;;;;;5124274;27;45199;-76
2023/08/09 08:03:09;;;;;;;;;3.00;3.00;;;;;;;;5105911;27;45994;-76
2023/08/09 08:05:34;;;;;;;;;1.00;1.00;;;;;;;;5124110;27;45353;-76
2023/08/09 08:08:00;;;;;;;;;2.00;1.67;;;;;;;;5123829;27;45286;-75
2023/08/09 08:10:26;;;;;;;;;2.00;2.00;;;;;;;;5123968;27;45374;-75
2023/08/09 08:12:51;;;;;;;;;1.00;1.00;;;;;;;;5123923;27;45408;-75
2023/08/09 08:15:16;;;;;;;;;3.33;3.33;;;;;;;;5107071;27;45351;-75
2023/08/09 08:17:42;;;;;;;;;3.00;3.00;;;;;;;;5103400;27;45316;-75
2023/08/09 08:20:15;;;;;;;;;4.00;4.00;;;;;;;;5084649;27;47070;-75
2023/08/09 08:22:40;;;;;;;;;2.00;2.00;;;;;;;;5102877;27;45267;-75
2023/08/09 08:25:05;;;;;;;;;2.33;2.00;;;;;;;;5122833;27;45421;-75
2023/08/09 08:27:34;;;;;;;;;2.00;2.00;;;;;;;;5115845;27;45828;-74
2023/08/09 08:29:59;;;;;;;;;4.33;3.00;;;;;;;;5137988;27;45407;-76
2023/08/09 08:32:24;;;;;;;;;2.00;2.00;;;;;;;;5127458;27;45317;-76
2023/08/09 08:34:50;;;;;;;;;2.00;2.00;;;;;;;;5123406;27;45367;-76
2023/08/09 08:37:15;;;;;;;;;3.00;2.00;;;;;;;;5100754;27;46971;-75
2023/08/09 08:39:43;;;;;;;;;2.00;2.00;;;;;;;;5116045;27;45371;-77
2023/08/09 08:42:08;;;;;;;;;1.00;1.00;;;;;;;;5092523;27;45462;-75
2023/08/09 08:44:35;;;;;;;;;1.67;1.67;;;;;;;;5102836;27;45258;-76
2023/08/09 08:47:00;;;;;;;;;1.33;1.33;;;;;;;;5093204;27;46348;-76
2023/08/09 08:49:27;;;;;;;;;0.33;0.33;;;;;;;;5095023;27;47640;-75
2023/08/09 08:51:57;;;;;;;;;3.00;2.00;;;;;;;;5113291;27;45440;-76
2023/08/09 08:54:23;;;;;;;;;1.00;1.00;;;;;;;;5092105;27;45428;-75
2023/08/09 08:56:48;;;;;;;;;0.33;0.33;;;;;;;;5112402;27;45629;-77
2023/08/09 08:59:15;;;;;;;;;2.00;2.00;;;;;;;;5121030;27;46227;-79
2023/08/09 09:01:42;;;;;;;;;1.00;1.00;;;;;;;;5102663;27;45362;-77
2023/08/09 09:04:07;;;;;;;;;1.00;1.00;;;;;;;;5103023;27;45456;-76
2023/08/09 09:06:33;;;;;;;;;1.00;1.00;;;;;;;;5121638;27;45667;-76
2023/08/09 09:08:59;;;;;;;;;2.00;2.00;;;;;;;;5120764;27;45392;-76
2023/08/09 09:11:25;;;;;;;;;1.00;1.00;;;;;;;;5121296;27;45528;-77
2023/08/09 09:13:51;;;;;;;;;2.00;1.00;;;;;;;;5088113;27;45358;-77
2023/08/09 09:16:17;;;;;;;;;0.33;0.33;;;;;;;;5102484;27;45312;-75
2023/08/09 09:18:44;;;;;;;;;0.67;0.67;;;;;;;;5102365;27;45273;-75
2023/08/09 09:21:10;;;;;;;;;1.67;1.67;;;;;;;;5083697;27;45201;-76
2023/08/09 09:23:35;;;;;;;;;1.00;1.00;;;;;;;;5102346;27;45640;-75
2023/08/09 09:26:05;;;;;;;;;1.67;1.67;;;;;;;;5101920;27;45331;-75
2023/08/09 09:28:38;;;;;;;;;1.00;1.00;;;;;;;;5093686;27;47366;-75
2023/08/09 09:31:03;;;;;;;;;1.67;1.67;;;;;;;;5110601;27;45519;-75
2023/08/09 09:33:33;;;;;;;;;3.00;2.00;;;;;;;;5112771;27;45425;-75
2023/08/09 09:35:58;;;;;;;;;2.00;2.00;;;;;;;;5107582;27;45478;-75
2023/08/09 09:38:24;;;;;;;;;2.00;1.00;;;;;;;;5097079;27;47411;-75
2023/08/09 09:40:49;;;;;;;;;2.00;2.00;;;;;;;;5122056;27;45445;-74
2023/08/09 09:43:15;;;;;;;;;2.00;2.00;;;;;;;;5122736;27;45393;-75
2023/08/09 09:45:41;;;;;;;;;3.00;3.00;;;;;;;;5122441;27;45568;-75
2023/08/09 09:48:16;;;;;;;;;1.00;1.00;;;;;;;;5122570;27;46187;-75
2023/08/09 09:50:42;;;;;;;;;1.33;1.00;;;;;;;;5122495;27;45379;-75
2023/08/09 09:53:08;;;;;;;;;2.00;1.67;;;;;;;;5122348;27;45398;-75
2023/08/09 09:55:33;;;;;;;;;2.00;2.00;;;;;;;;5117897;27;45448;-74
2023/08/09 09:57:59;;;;;;;;;2.33;2.33;;;;;;;;5101203;27;45437;-76
2023/08/09 10:00:25;;;;;;;;;2.00;2.00;;;;;;;;5105426;27;45484;-75
2023/08/09 10:02:51;;;;;;;;;0.00;0.00;;;;;;;;5109997;27;45474;-75
2023/08/09 10:05:37;;;;;;;;;2.00;2.00;;;;;;;;5086840;27;47026;-75
2023/08/09 10:08:10;;;;;;;;;1.00;1.00;;;;;;;;5082409;27;48219;-75
2023/08/09 10:10:35;;;;;;;;;1.00;1.00;;;;;;;;5101326;27;45517;-75
2023/08/09 10:13:03;;;;;;;;;2.00;2.00;;;;;;;;5101379;27;45447;-77
2023/08/09 10:15:29;;;;;;;;;3.00;2.67;;;;;;;;5100937;27;45284;-78
2023/08/09 10:17:58;;;;;;;;;2.00;2.00;;;;;;;;5085283;27;45340;-76
2023/08/09 10:20:24;;;;;;;;;3.33;3.00;;;;;;;;5102706;27;45389;-76
2023/08/09 10:22:50;;;;;;;;;1.67;1.67;;;;;;;;5105855;27;45307;-78
2023/08/09 10:25:15;;;;;;;;;3.00;2.00;;;;;;;;5105875;27;45294;-79
2023/08/09 10:27:50;;;;;;;;;3.67;3.67;;;;;;;;5112318;27;46133;-78
2023/08/09 10:30:17;;;;;;;;;2.00;2.00;;;;;;;;5115638;27;45437;-79
2023/08/09 10:32:53;;;;;;;;;4.00;4.00;;;;;;;;5105337;27;45369;-76
2023/08/09 10:35:41;;;;;;;;;3.00;3.00;;;;;;;;5124447;27;45681;-76
2023/08/09 10:38:07;;;;;;;;;3.33;3.33;;;;;;;;5104990;27;47322;-76
2023/08/09 10:40:34;;;;;;;;;3.00;3.00;;;;;;;;5103101;27;45984;-77
2023/08/09 10:43:00;;;;;;;;;2.00;2.00;;;;;;;;5103807;27;45345;-76
2023/08/09 10:45:25;;;;;;;;;2.67;2.67;;;;;;;;5125162;27;45294;-77
2023/08/09 10:47:50;;;;;;;;;1.75;1.75;;;;;;;;5120314;27;45908;-79
2023/08/09 10:50:18;;;;;;;;;3.33;3.33;;;;;;;;5086202;27;46126;-76
2023/08/09 10:52:48;;;;;;;;;1.00;1.00;;;;;;;;5095870;27;45519;-76
2023/08/09 10:55:21;;;;;;;;;3.33;3.33;;;;;;;;5109269;27;45412;-75
2023/08/09 10:57:50;;;;;;;;;2.00;2.00;;;;;;;;5082463;27;48215;-75
2023/08/09 11:00:16;;;;;;;;;1.00;1.00;;;;;;;;5109400;27;45267;-77
2023/08/09 11:02:58;;;;;;;;;2.00;2.00;;;;;;;;5104756;27;45376;-75
2023/08/09 11:05:24;;;;;;;;;1.75;0.50;;;;;;;;5113283;27;45415;-74
2023/08/09 11:07:51;;;;;;;;;1.00;1.00;;;;;;;;5099156;27;48055;-75
2023/08/09 11:10:28;;;;;;;;;0.50;0.50;;;;;;;;5085257;27;45416;-75
2023/08/09 11:12:54;;;;;;;;;1.00;1.00;;;;;;;;5102090;27;45354;-75
2023/08/09 11:15:19;;;;;;;;;1.00;1.00;;;;;;;;5105568;27;45548;-75
2023/08/09 11:17:50;;;;;;;;;0.33;0.33;;;;;;;;5125229;27;45300;-76
2023/08/09 11:20:16;;;;;;;;;1.67;1.67;;;;;;;;5106253;27;45442;-75
2023/08/09 11:22:45;;;;;;;;;1.00;1.00;;;;;;;;5106180;27;45442;-74
2023/08/09 11:25:10;;;;;;;;;2.00;2.00;;;;;;;;5111659;27;45439;-75
2023/08/09 11:27:39;;;;;;;;;2.00;2.00;;;;;;;;5114254;27;46031;-75
2023/08/09 11:30:08;;;;;;;;;2.00;1.67;;;;;;;;5111532;27;45706;-76
2023/08/09 11:32:33;;;;;;;;;1.67;1.33;;;;;;;;5102361;27;45432;-75
2023/08/09 11:34:59;;;;;;;;;2.00;1.33;;;;;;;;5103637;27;45416;-75
2023/08/09 11:37:25;;;;;;;;;2.00;2.00;;;;;;;;5118504;27;45495;-76
2023/08/09 11:39:51;;;;;;;;;3.00;2.67;;;;;;;;5105296;27;45346;-76
2023/08/09 11:42:16;;;;;;;;;3.67;3.00;;;;;;;;5083393;27;45413;-76
2023/08/09 11:44:43;;;;;;;;;3.00;2.00;;;;;;;;5099163;27;45676;-76
2023/08/09 11:47:08;;;;;;;;;1.25;1.25;;;;;;;;5102332;27;46139;-75
2023/08/09 11:49:34;;;;;;;;;2.33;2.33;;;;;;;;5110018;27;45366;-76
2023/08/09 11:52:00;;;;;;;;;1.67;1.67;;;;;;;;5119030;27;45440;-76
2023/08/09 11:54:26;;;;;;;;;2.00;2.00;;;;;;;;5100433;27;46004;-76
2023/08/09 11:56:51;;;;;;;;;2.75;2.75;;;;;;;;5095055;27;48229;-75
2023/08/09 11:59:18;;;;;;;;;3.00;3.00;;;;;;;;5096959;27;45531;-74
2023/08/09 12:01:47;;;;;;;;;4.00;4.00;;;;;;;;5119652;27;45340;-75
2023/08/09 12:04:17;;;;;;;;;2.67;2.67;;;;;;;;5116909;27;45412;-75
2023/08/09 12:06:49;;;;;;;;;5.00;4.00;;;;;;;;5118485;27;45483;-75
2023/08/09 12:09:23;;;;;;;;;3.00;3.00;;;;;;;;5119014;27;45322;-75
2023/08/09 12:11:49;;;;;;;;;2.67;2.67;;;;;;;;5114900;27;45496;-75
2023/08/09 12:14:14;;;;;;;;;2.67;2.00;;;;;;;;5119697;27;45256;-77
2023/08/09 12:16:39;;;;;;;;;2.25;2.00;;;;;;;;5119642;27;46729;-75
2023/08/09 12:19:05;;;;;;;;;3.00;3.00;;;;;;;;5117424;27;45393;-74
2023/08/09 12:21:30;;;;;;;;;3.00;1.75;;;;;;;;5107106;27;45563;-75
2023/08/09 12:23:55;;;;;;;;;1.00;1.00;;;;;;;;5122451;27;45414;-77
2023/08/09 12:26:20;;;;;;;;;2.00;2.00;;;;;;;;5103788;27;48173;-77
2023/08/09 12:28:45;;;;;;;;;4.00;4.00;;;;;;;;5126737;27;45695;-77
2023/08/09 12:31:10;;;;;;;;;5.00;3.00;;;;;;;;5132683;27;45345;-78
2023/08/09 12:33:36;;;;;;;;;4.00;4.00;;;;;;;;5130022;27;45457;-75
2023/08/09 12:36:01;;;;;;;;;4.00;3.00;;;;;;;;5111087;27;45584;-75
2023/08/09 12:38:26;;;;;;;;;2.00;2.00;;;;;;;;5130032;27;45320;-78
2023/08/09 12:40:51;;;;;;;;;3.00;3.00;;;;;;;;5127482;27;45508;-76
2023/08/09 12:43:16;;;;;;;;;4.00;4.00;;;;;;;;5120146;27;45543;-78
2023/08/09 12:45:42;;;;;;;;;3.25;3.25;;;;;;;;5129237;27;46313;-78
2023/08/09 12:48:07;;;;;;;;;3.00;3.00;;;;;;;;5105880;27;45825;-77
2023/08/09 12:50:32;;;;;;;;;3.00;3.00;;;;;;;;5120144;27;45383;-76
2023/08/09 12:52:57;;;;;;;;;4.00;4.00;;;;;;;;5103211;27;46842;-75
2023/08/09 12:55:22;;;;;;;;;3.00;3.00;;;;;;;;5116044;27;45359;-78
2023/08/09 12:57:47;;;;;;;;;2.25;2.25;;;;;;;;5105509;27;45385;-75
2023/08/09 13:00:13;;;;;;;;;5.00;3.00;;;;;;;;5114584;27;45562;-77
2023/08/09 13:02:39;;;;;;;;;4.00;3.00;;;;;;;;5123845;27;45439;-75
2023/08/09 13:05:07;;;;;;;;;3.50;3.50;;;;;;;;5098162;27;47264;-75
2023/08/09 13:07:33;;;;;;;;;2.75;2.75;;;;;;;;5116533;27;45839;-76
2023/08/09 13:09:58;;;;;;;;;2.75;2.75;;;;;;;;5116542;27;45797;-76
2023/08/09 13:12:25;;;;;;;;;3.00;3.00;;;;;;;;5110518;27;45772;-75
2023/08/09 13:14:50;;;;;;;;;2.50;2.50;;;;;;;;5102938;27;47609;-75
2023/08/09 13:17:16;;;;;;;;;5.75;4.75;;;;;;;;5116093;27;45484;-77
2023/08/09 13:19:41;;;;;;;;;3.00;2.67;;;;;;;;5113194;27;45943;-75
2023/08/09 13:22:07;;;;;;;;;2.75;2.75;;;;;;;;5111531;27;45353;-77
2023/08/09 13:24:32;;;;;;;;;5.00;3.75;;;;;;;;5122025;27;45795;-76
2023/08/09 13:26:57;;;;;;;;;2.75;2.75;;;;;;;;5112608;27;45609;-75
2023/08/09 13:29:22;;;;;;;;;3.00;3.00;;;;;;;;5114044;27;45364;-75
2023/08/09 13:31:47;;;;;;;;;2.25;2.25;;;;;;;;5105725;27;45554;-78
2023/08/09 13:34:13;;;;;;;;;3.25;3.25;;;;;;;;5133251;27;45484;-77
2023/08/09 13:36:38;;;;;;;;;5.00;5.00;;;;;;;;5125876;27;45944;-77
2023/08/09 13:39:03;;;;;;;;;4.00;4.00;;;;;;;;5103986;27;45483;-78
2023/08/09 13:41:28;;;;;;;;;3.25;3.25;;;;;;;;5099525;27;45975;-75
2023/08/09 13:43:54;;;;;;;;;3.25;3.25;;;;;;;;5104753;27;47554;-76
2023/08/09 13:46:19;;;;;;;;;5.00;5.00;;;;;;;;5137209;27;45267;-75
2023/08/09 13:48:44;;;;;;;;;4.00;4.00;;;;;;;;5122816;27;45364;-75
2023/08/09 13:51:09;;;;;;;;;4.50;4.50;;;;;;;;5125460;27;45389;-75
2023/08/09 13:53:34;;;;;;;;;4.00;4.00;;;;;;;;5107836;27;45331;-75
2023/08/09 13:56:00;;;;;;;;;4.00;3.50;;;;;;;;5111312;27;45346;-75
2023/08/09 13:58:25;;;;;;;;;4.75;4.00;;;;;;;;5112864;27;45388;-77
2023/08/09 14:00:50;;;;;;;;;3.00;3.00;;;;;;;;5088697;27;47151;-78
2023/08/09 14:03:15;;;;;;;;;3.00;3.00;;;;;;;;5081788;27;46933;-76
2023/08/09 14:05:41;;;;;;;;;3.67;3.67;;;;;;;;5121854;27;45346;-75
2023/08/09 14:08:06;;;;;;;;;5.00;5.00;;;;;;;;5121913;27;45299;-75
2023/08/09 14:10:32;;;;;;;;;3.67;3.67;;;;;;;;5122195;27;45306;-75
2023/08/09 14:12:57;;;;;;;;;5.00;5.00;;;;;;;;5117807;27;45456;-77
2023/08/09 14:15:22;;;;;;;;;3.25;3.25;;;;;;;;5102818;27;45369;-75
2023/08/09 14:17:48;;;;;;;;;4.67;4.00;;;;;;;;5083209;27;45379;-76
2023/08/09 14:20:16;;;;;;;;;5.25;5.25;;;;;;;;5101454;27;45346;-75
2023/08/09 14:22:47;;;;;;;;;3.00;3.00;;;;;;;;5082645;27;48357;-75
2023/08/09 14:25:13;;;;;;;;;3.50;3.50;;;;;;;;5082816;27;45337;-76
2023/08/09 14:27:38;;;;;;;;;3.50;3.50;;;;;;;;5082972;27;45283;-75
2023/08/09 14:30:04;;;;;;;;;4.75;4.75;;;;;;;;5131660;27;45293;-77
2023/08/09 14:32:29;;;;;;;;;5.00;5.00;;;;;;;;5117679;27;47271;-75
2023/08/09 14:34:54;;;;;;;;;4.00;4.00;;;;;;;;5102778;27;45247;-75
2023/08/09 14:37:20;;;;;;;;;4.75;4.75;;;;;;;;5101360;27;45537;-76